sensor_id;sensor_type;location;lat;lon;timestamp;temperature;humidity
8820;DHT22;4446;50.876;4.736;2023-12-04T00:00:22;1.20;99.90
8820;DHT22;4446;50.876;4.736;2023-12-04T00:02:49;1.40;99.90
8820;DHT22;4446;50.876;4.736;2023-12-04T00:05:16;1.40;99.90
8820;DHT22;4446;50.876;4.736;2023-12-04T00:07:43;1.40;99.90
8820;DHT22;4446;50.876;4.736;2023-12-04T00:10:10;1.40;99.90
8820;DHT22;4446;50.876;4.736;2023-12-04T00:12:37;1.40;99.90
8820;DHT22;4446;50.876;4.736;2023-12-04T00:15:05;1.40;99.90
8820;DHT22;4446;50.876;4.736;2023-12-04T00:17:33;1.40;99.90
8820;DHT22;4446;50.876;4.736;2023-12-04T00:20:05;1.20;99.90
8820;DHT22;4446;50.876;4.736;2023-12-04T00:22:33;1.20;99.90
8820;DHT22;4446;50.876;4.736;2023-12-04T00:25:01;1.20;99.90
8820;DHT22;4446;50.876;4.736;2023-12-04T00:27:28;1.20;99.90
8820;DHT22;4446;50.876;4.736;2023-12-04T00:29:56;1.20;99.90
8820;DHT22;4446;50.876;4.736;2023-12-04T00:32:24;1.10;99.90
8820;DHT22;4446;50.876;4.736;2023-12-04T00:34:52;1.30;99.90
8820;DHT22;4446;50.876;4.736;2023-12-04T00:37:19;1.30;99.90
8820;DHT22;4446;50.876;4.736;2023-12-04T00:39:46;1.30;99.90
8820;DHT22;4446;50.876;4.736;2023-12-04T00:42:13;1.30;99.90
8820;DHT22;4446;50.876;4.736;2023-12-04T00:44:40;1.30;99.90
8820;DHT22;4446;50.876;4.736;2023-12-04T00:47:07;1.30;99.90
8820;DHT22;4446;50.876;4.736;2023-12-04T00:49:36;1.30;99.90
8820;DHT22;4446;50.876;4.736;2023-12-04T00:52:04;1.30;99.90
8820;DHT22;4446;50.876;4.736;2023-12-04T00:54:32;1.20;99.90
8820;DHT22;4446;50.876;4.736;2023-12-04T00:56:59;1.30;99.90
8820;DHT22;4446;50.876;4.736;2023-12-04T00:59:26;1.30;99.90
8820;DHT22;4446;50.876;4.736;2023-12-04T01:01:53;1.30;99.90
8820;DHT22;4446;50.876;4.736;2023-12-04T01:04:20;1.20;99.90
8820;DHT22;4446;50.876;4.736;2023-12-04T01:06:47;1.20;99.90
8820;DHT22;4446;50.876;4.736;2023-12-04T01:09:15;1.20;99.90
8820;DHT22;4446;50.876;4.736;2023-12-04T01:11:42;1.20;99.90
8820;DHT22;4446;50.876;4.736;2023-12-04T01:14:09;1.20;99.90
8820;DHT22;4446;50.876;4.736;2023-12-04T01:16:36;1.10;99.90
8820;DHT22;4446;50.876;4.736;2023-12-04T01:19:03;1.20;99.90
8820;DHT22;4446;50.876;4.736;2023-12-04T01:21:31;1.20;99.90
8820;DHT22;4446;50.876;4.736;2023-12-04T01:23:58;1.30;99.90
8820;DHT22;4446;50.876;4.736;2023-12-04T01:26:26;1.10;99.90
8820;DHT22;4446;50.876;4.736;2023-12-04T01:28:53;1.20;99.90
8820;DHT22;4446;50.876;4.736;2023-12-04T01:31:20;1.10;99.90
8820;DHT22;4446;50.876;4.736;2023-12-04T01:33:48;1.10;99.90
8820;DHT22;4446;50.876;4.736;2023-12-04T01:36:15;1.00;99.90
8820;DHT22;4446;50.876;4.736;2023-12-04T01:38:42;0.90;99.90
8820;DHT22;4446;50.876;4.736;2023-12-04T01:41:09;1.00;99.90
8820;DHT22;4446;50.876;4.736;2023-12-04T01:43:37;0.90;99.90
8820;DHT22;4446;50.876;4.736;2023-12-04T01:46:05;0.90;99.90
8820;DHT22;4446;50.876;4.736;2023-12-04T01:48:33;1.00;99.90
8820;DHT22;4446;50.876;4.736;2023-12-04T01:51:05;1.10;99.90
8820;DHT22;4446;50.876;4.736;2023-12-04T01:53:33;1.10;99.90
8820;DHT22;4446;50.876;4.736;2023-12-04T01:56:02;1.20;99.90
8820;DHT22;4446;50.876;4.736;2023-12-04T01:58:29;1.20;99.90
8820;DHT22;4446;50.876;4.736;2023-12-04T02:00:57;1.20;99.90
8820;DHT22;4446;50.876;4.736;2023-12-04T02:03:25;1.20;99.90
8820;DHT22;4446;50.876;4.736;2023-12-04T02:05:51;1.30;99.90
8820;DHT22;4446;50.876;4.736;2023-12-04T02:08:19;1.20;99.90
8820;DHT22;4446;50.876;4.736;2023-12-04T02:10:46;1.30;99.90
8820;DHT22;4446;50.876;4.736;2023-12-04T02:13:13;1.20;99.90
8820;DHT22;4446;50.876;4.736;2023-12-04T02:15:40;1.30;99.90
8820;DHT22;4446;50.876;4.736;2023-12-04T02:18:09;1.20;99.90
8820;DHT22;4446;50.876;4.736;2023-12-04T02:20:36;1.30;99.90
8820;DHT22;4446;50.876;4.736;2023-12-04T02:23:03;1.40;99.90
8820;DHT22;4446;50.876;4.736;2023-12-04T02:25:31;1.50;99.90
8820;DHT22;4446;50.876;4.736;2023-12-04T02:28:01;1.40;99.90
8820;DHT22;4446;50.876;4.736;2023-12-04T02:30:30;1.40;99.90
8820;DHT22;4446;50.876;4.736;2023-12-04T02:33:00;1.40;99.90
8820;DHT22;4446;50.876;4.736;2023-12-04T02:35:31;1.40;99.90
8820;DHT22;4446;50.876;4.736;2023-12-04T02:38:00;1.40;99.90
8820;DHT22;4446;50.876;4.736;2023-12-04T02:40:27;1.50;99.90
8820;DHT22;4446;50.876;4.736;2023-12-04T02:42:55;1.40;99.90
8820;DHT22;4446;50.876;4.736;2023-12-04T02:45:22;1.40;99.90
8820;DHT22;4446;50.876;4.736;2023-12-04T02:47:49;1.30;99.90
8820;DHT22;4446;50.876;4.736;2023-12-04T02:50:16;1.30;99.90
8820;DHT22;4446;50.876;4.736;2023-12-04T02:52:43;1.40;99.90
8820;DHT22;4446;50.876;4.736;2023-12-04T02:55:10;1.60;99.90
8820;DHT22;4446;50.876;4.736;2023-12-04T02:57:37;1.60;99.90
8820;DHT22;4446;50.876;4.736;2023-12-04T03:00:07;1.50;99.90
8820;DHT22;4446;50.876;4.736;2023-12-04T03:02:35;1.50;99.90
8820;DHT22;4446;50.876;4.736;2023-12-04T03:05:02;1.40;99.90
8820;DHT22;4446;50.876;4.736;2023-12-04T03:07:29;1.50;99.90
8820;DHT22;4446;50.876;4.736;2023-12-04T03:09:56;1.50;99.90
8820;DHT22;4446;50.876;4.736;2023-12-04T03:12:23;1.50;99.90
8820;DHT22;4446;50.876;4.736;2023-12-04T03:14:50;1.50;99.90
8820;DHT22;4446;50.876;4.736;2023-12-04T03:17:19;1.50;99.90
8820;DHT22;4446;50.876;4.736;2023-12-04T03:19:46;1.50;99.90
8820;DHT22;4446;50.876;4.736;2023-12-04T03:22:13;1.50;99.90
8820;DHT22;4446;50.876;4.736;2023-12-04T03:24:40;1.40;99.90
8820;DHT22;4446;50.876;4.736;2023-12-04T03:27:07;1.60;99.90
8820;DHT22;4446;50.876;4.736;2023-12-04T03:29:34;1.50;99.90
8820;DHT22;4446;50.876;4.736;2023-12-04T03:32:01;1.60;99.90
8820;DHT22;4446;50.876;4.736;2023-12-04T03:34:29;1.60;99.90
8820;DHT22;4446;50.876;4.736;2023-12-04T03:36:56;1.60;99.90
8820;DHT22;4446;50.876;4.736;2023-12-04T03:39:23;1.70;99.90
8820;DHT22;4446;50.876;4.736;2023-12-04T03:41:50;1.60;99.90
8820;DHT22;4446;50.876;4.736;2023-12-04T03:44:17;1.50;99.90
8820;DHT22;4446;50.876;4.736;2023-12-04T03:46:44;1.50;99.90
8820;DHT22;4446;50.876;4.736;2023-12-04T03:49:11;1.50;99.90
8820;DHT22;4446;50.876;4.736;2023-12-04T03:51:39;1.50;99.90
8820;DHT22;4446;50.876;4.736;2023-12-04T03:54:06;1.50;99.90
8820;DHT22;4446;50.876;4.736;2023-12-04T03:56:33;1.40;99.90
8820;DHT22;4446;50.876;4.736;2023-12-04T03:59:00;1.60;99.90
8820;DHT22;4446;50.876;4.736;2023-12-04T04:01:27;1.60;99.90
8820;DHT22;4446;50.876;4.736;2023-12-04T04:03:54;1.60;99.90
8820;DHT22;4446;50.876;4.736;2023-12-04T04:06:21;1.50;99.90
8820;DHT22;4446;50.876;4.736;2023-12-04T04:08:50;1.60;99.90
8820;DHT22;4446;50.876;4.736;2023-12-04T04:11:18;1.70;99.90
8820;DHT22;4446;50.876;4.736;2023-12-04T04:13:45;1.80;99.90
8820;DHT22;4446;50.876;4.736;2023-12-04T04:16:14;1.70;99.90
8820;DHT22;4446;50.876;4.736;2023-12-04T04:18:42;1.70;99.90
8820;DHT22;4446;50.876;4.736;2023-12-04T04:21:09;1.60;99.90
8820;DHT22;4446;50.876;4.736;2023-12-04T04:23:36;1.70;99.90
8820;DHT22;4446;50.876;4.736;2023-12-04T04:26:05;1.70;99.90
8820;DHT22;4446;50.876;4.736;2023-12-04T04:28:32;1.70;99.90
8820;DHT22;4446;50.876;4.736;2023-12-04T04:30:59;1.70;99.90
8820;DHT22;4446;50.876;4.736;2023-12-04T04:33:26;1.60;99.90
8820;DHT22;4446;50.876;4.736;2023-12-04T04:35:53;1.60;99.90
8820;DHT22;4446;50.876;4.736;2023-12-04T04:38:20;1.60;99.90
8820;DHT22;4446;50.876;4.736;2023-12-04T04:40:47;1.70;99.90
8820;DHT22;4446;50.876;4.736;2023-12-04T04:43:15;1.60;99.90
8820;DHT22;4446;50.876;4.736;2023-12-04T04:45:42;1.80;99.90
8820;DHT22;4446;50.876;4.736;2023-12-04T04:48:09;1.70;99.90
8820;DHT22;4446;50.876;4.736;2023-12-04T04:50:37;1.70;99.90
8820;DHT22;4446;50.876;4.736;2023-12-04T04:53:04;1.60;99.90
8820;DHT22;4446;50.876;4.736;2023-12-04T04:55:30;1.50;99.90
8820;DHT22;4446;50.876;4.736;2023-12-04T04:57:58;1.50;99.90
8820;DHT22;4446;50.876;4.736;2023-12-04T05:00:26;1.60;99.90
8820;DHT22;4446;50.876;4.736;2023-12-04T05:02:53;1.60;99.90
8820;DHT22;4446;50.876;4.736;2023-12-04T05:05:20;1.60;99.90
8820;DHT22;4446;50.876;4.736;2023-12-04T05:07:47;1.70;99.90
8820;DHT22;4446;50.876;4.736;2023-12-04T05:10:14;1.70;99.90
8820;DHT22;4446;50.876;4.736;2023-12-04T05:12:41;1.80;99.90
8820;DHT22;4446;50.876;4.736;2023-12-04T05:15:09;1.80;99.90
8820;DHT22;4446;50.876;4.736;2023-12-04T05:17:38;1.80;99.90
8820;DHT22;4446;50.876;4.736;2023-12-04T05:20:06;1.70;99.90
8820;DHT22;4446;50.876;4.736;2023-12-04T05:22:34;1.70;99.90
8820;DHT22;4446;50.876;4.736;2023-12-04T05:25:01;1.70;99.90
8820;DHT22;4446;50.876;4.736;2023-12-04T05:27:28;1.70;99.90
8820;DHT22;4446;50.876;4.736;2023-12-04T05:29:55;1.80;99.90
8820;DHT22;4446;50.876;4.736;2023-12-04T05:32:22;1.80;99.90
8820;DHT22;4446;50.876;4.736;2023-12-04T05:34:51;1.70;99.90
8820;DHT22;4446;50.876;4.736;2023-12-04T05:37:18;1.80;99.90
8820;DHT22;4446;50.876;4.736;2023-12-04T05:39:45;1.80;99.90
8820;DHT22;4446;50.876;4.736;2023-12-04T05:42:12;1.70;99.90
8820;DHT22;4446;50.876;4.736;2023-12-04T05:44:39;1.80;99.90
8820;DHT22;4446;50.876;4.736;2023-12-04T05:47:06;1.80;99.90
8820;DHT22;4446;50.876;4.736;2023-12-04T05:49:34;1.70;99.90
8820;DHT22;4446;50.876;4.736;2023-12-04T05:52:02;1.70;99.90
8820;DHT22;4446;50.876;4.736;2023-12-04T05:54:29;1.90;99.90
8820;DHT22;4446;50.876;4.736;2023-12-04T05:56:57;2.00;99.90
8820;DHT22;4446;50.876;4.736;2023-12-04T05:59:24;2.00;99.90
8820;DHT22;4446;50.876;4.736;2023-12-04T06:01:51;2.00;99.90
8820;DHT22;4446;50.876;4.736;2023-12-04T06:04:18;2.10;99.90
8820;DHT22;4446;50.876;4.736;2023-12-04T06:06:45;2.20;99.90
8820;DHT22;4446;50.876;4.736;2023-12-04T06:09:13;2.20;99.90
8820;DHT22;4446;50.876;4.736;2023-12-04T06:11:42;2.00;99.90
8820;DHT22;4446;50.876;4.736;2023-12-04T06:14:09;1.90;99.90
8820;DHT22;4446;50.876;4.736;2023-12-04T06:16:37;2.00;99.90
8820;DHT22;4446;50.876;4.736;2023-12-04T06:19:04;2.00;99.90
8820;DHT22;4446;50.876;4.736;2023-12-04T06:21:31;2.00;99.90
8820;DHT22;4446;50.876;4.736;2023-12-04T06:23:58;2.00;99.90
8820;DHT22;4446;50.876;4.736;2023-12-04T06:26:27;2.10;99.90
8820;DHT22;4446;50.876;4.736;2023-12-04T06:28:56;2.10;99.90
8820;DHT22;4446;50.876;4.736;2023-12-04T06:31:24;2.20;99.90
8820;DHT22;4446;50.876;4.736;2023-12-04T06:33:51;2.20;99.90
8820;DHT22;4446;50.876;4.736;2023-12-04T06:36:19;2.30;99.90
8820;DHT22;4446;50.876;4.736;2023-12-04T06:38:47;2.20;99.90
8820;DHT22;4446;50.876;4.736;2023-12-04T06:41:16;2.20;99.90
8820;DHT22;4446;50.876;4.736;2023-12-04T06:43:46;2.30;99.90
8820;DHT22;4446;50.876;4.736;2023-12-04T06:46:14;2.50;99.90
8820;DHT22;4446;50.876;4.736;2023-12-04T06:48:43;2.60;99.90
8820;DHT22;4446;50.876;4.736;2023-12-04T06:51:10;2.40;99.90
8820;DHT22;4446;50.876;4.736;2023-12-04T06:53:37;2.50;99.90
8820;DHT22;4446;50.876;4.736;2023-12-04T06:56:05;2.40;99.90
8820;DHT22;4446;50.876;4.736;2023-12-04T06:58:32;2.40;99.90
8820;DHT22;4446;50.876;4.736;2023-12-04T07:01:01;2.50;99.90
8820;DHT22;4446;50.876;4.736;2023-12-04T07:07:09;2.50;99.90
8820;DHT22;4446;50.876;4.736;2023-12-04T07:09:38;2.60;99.90
8820;DHT22;4446;50.876;4.736;2023-12-04T07:12:05;2.60;99.90
8820;DHT22;4446;50.876;4.736;2023-12-04T07:14:32;2.60;99.90
8820;DHT22;4446;50.876;4.736;2023-12-04T07:17:01;2.60;99.90
8820;DHT22;4446;50.876;4.736;2023-12-04T07:19:28;2.70;99.90
8820;DHT22;4446;50.876;4.736;2023-12-04T07:21:55;2.60;99.90
8820;DHT22;4446;50.876;4.736;2023-12-04T07:24:22;2.60;99.90
8820;DHT22;4446;50.876;4.736;2023-12-04T07:26:49;2.50;99.90
8820;DHT22;4446;50.876;4.736;2023-12-04T07:29:16;2.50;99.90
8820;DHT22;4446;50.876;4.736;2023-12-04T07:31:44;2.50;99.90
8820;DHT22;4446;50.876;4.736;2023-12-04T07:34:13;2.60;99.90
8820;DHT22;4446;50.876;4.736;2023-12-04T07:36:40;2.60;99.90
8820;DHT22;4446;50.876;4.736;2023-12-04T07:39:07;2.50;99.90
8820;DHT22;4446;50.876;4.736;2023-12-04T07:41:34;2.50;99.90
8820;DHT22;4446;50.876;4.736;2023-12-04T07:44:01;2.50;99.90
8820;DHT22;4446;50.876;4.736;2023-12-04T07:46:29;2.40;99.90
8820;DHT22;4446;50.876;4.736;2023-12-04T07:48:56;2.40;99.90
8820;DHT22;4446;50.876;4.736;2023-12-04T07:51:25;2.50;99.90
8820;DHT22;4446;50.876;4.736;2023-12-04T07:53:52;2.60;99.90
8820;DHT22;4446;50.876;4.736;2023-12-04T07:56:19;2.50;99.90
8820;DHT22;4446;50.876;4.736;2023-12-04T07:58:47;2.40;99.90
8820;DHT22;4446;50.876;4.736;2023-12-04T08:01:15;2.40;99.90
8820;DHT22;4446;50.876;4.736;2023-12-04T08:03:42;2.30;99.90
8820;DHT22;4446;50.876;4.736;2023-12-04T08:06:09;2.40;99.90
8820;DHT22;4446;50.876;4.736;2023-12-04T08:08:37;2.50;99.90
8820;DHT22;4446;50.876;4.736;2023-12-04T08:11:04;2.50;99.90
8820;DHT22;4446;50.876;4.736;2023-12-04T08:13:31;2.50;99.90
8820;DHT22;4446;50.876;4.736;2023-12-04T08:15:58;2.60;99.90
8820;DHT22;4446;50.876;4.736;2023-12-04T08:18:26;2.50;99.90
8820;DHT22;4446;50.876;4.736;2023-12-04T08:20:53;2.60;99.90
8820;DHT22;4446;50.876;4.736;2023-12-04T08:23:20;2.60;99.90
8820;DHT22;4446;50.876;4.736;2023-12-04T08:25:48;2.50;99.90
8820;DHT22;4446;50.876;4.736;2023-12-04T08:28:15;2.60;99.90
8820;DHT22;4446;50.876;4.736;2023-12-04T08:30:42;2.60;99.90
8820;DHT22;4446;50.876;4.736;2023-12-04T08:33:09;2.60;99.90
8820;DHT22;4446;50.876;4.736;2023-12-04T08:35:36;2.70;99.90
8820;DHT22;4446;50.876;4.736;2023-12-04T08:38:03;2.70;99.90
8820;DHT22;4446;50.876;4.736;2023-12-04T08:40:30;2.70;99.90
8820;DHT22;4446;50.876;4.736;2023-12-04T08:42:59;2.90;99.90
8820;DHT22;4446;50.876;4.736;2023-12-04T08:45:26;2.90;99.90
8820;DHT22;4446;50.876;4.736;2023-12-04T08:47:53;2.90;99.90
8820;DHT22;4446;50.876;4.736;2023-12-04T08:50:20;3.00;99.90
8820;DHT22;4446;50.876;4.736;2023-12-04T08:52:47;3.00;99.90
8820;DHT22;4446;50.876;4.736;2023-12-04T08:55:14;3.10;99.90
8820;DHT22;4446;50.876;4.736;2023-12-04T08:57:41;3.20;99.90
8820;DHT22;4446;50.876;4.736;2023-12-04T09:00:10;3.20;99.90
8820;DHT22;4446;50.876;4.736;2023-12-04T09:02:37;3.10;99.90
8820;DHT22;4446;50.876;4.736;2023-12-04T09:05:05;3.10;99.90
8820;DHT22;4446;50.876;4.736;2023-12-04T09:07:35;3.10;99.90
8820;DHT22;4446;50.876;4.736;2023-12-04T09:10:03;3.00;99.90
8820;DHT22;4446;50.876;4.736;2023-12-04T09:12:30;3.10;99.90
8820;DHT22;4446;50.876;4.736;2023-12-04T09:14:57;3.00;99.90
8820;DHT22;4446;50.876;4.736;2023-12-04T09:17:26;2.90;99.90
8820;DHT22;4446;50.876;4.736;2023-12-04T09:19:53;2.80;99.90
8820;DHT22;4446;50.876;4.736;2023-12-04T09:22:20;2.90;99.90
8820;DHT22;4446;50.876;4.736;2023-12-04T09:24:47;2.80;99.90
8820;DHT22;4446;50.876;4.736;2023-12-04T09:27:14;2.80;99.90
8820;DHT22;4446;50.876;4.736;2023-12-04T09:29:41;2.80;99.90
8820;DHT22;4446;50.876;4.736;2023-12-04T09:32:08;2.80;99.90
8820;DHT22;4446;50.876;4.736;2023-12-04T09:34:37;2.80;99.90
8820;DHT22;4446;50.876;4.736;2023-12-04T09:37:04;2.90;99.90
8820;DHT22;4446;50.876;4.736;2023-12-04T09:39:31;2.90;99.90
8820;DHT22;4446;50.876;4.736;2023-12-04T09:41:58;2.90;99.90
8820;DHT22;4446;50.876;4.736;2023-12-04T09:44:28;2.90;99.90
8820;DHT22;4446;50.876;4.736;2023-12-04T09:46:56;2.90;99.90
8820;DHT22;4446;50.876;4.736;2023-12-04T09:49:23;2.90;99.90
8820;DHT22;4446;50.876;4.736;2023-12-04T09:51:53;2.90;99.90
8820;DHT22;4446;50.876;4.736;2023-12-04T09:54:20;2.80;99.90
8820;DHT22;4446;50.876;4.736;2023-12-04T09:56:49;2.90;99.90
8820;DHT22;4446;50.876;4.736;2023-12-04T09:59:17;2.80;99.90
8820;DHT22;4446;50.876;4.736;2023-12-04T10:01:45;2.90;99.90
8820;DHT22;4446;50.876;4.736;2023-12-04T10:04:13;2.80;99.90
8820;DHT22;4446;50.876;4.736;2023-12-04T10:06:41;2.80;99.90
8820;DHT22;4446;50.876;4.736;2023-12-04T10:09:10;2.80;99.90
8820;DHT22;4446;50.876;4.736;2023-12-04T10:11:42;2.80;99.90
8820;DHT22;4446;50.876;4.736;2023-12-04T10:14:15;2.70;99.90
8820;DHT22;4446;50.876;4.736;2023-12-04T10:16:43;2.70;99.90
8820;DHT22;4446;50.876;4.736;2023-12-04T10:19:21;2.80;99.90
8820;DHT22;4446;50.876;4.736;2023-12-04T10:21:51;2.80;99.90
8820;DHT22;4446;50.876;4.736;2023-12-04T10:24:31;2.80;99.90
8820;DHT22;4446;50.876;4.736;2023-12-04T10:26:59;2.80;99.90
8820;DHT22;4446;50.876;4.736;2023-12-04T10:29:28;2.80;99.90
8820;DHT22;4446;50.876;4.736;2023-12-04T10:31:57;2.80;99.90
8820;DHT22;4446;50.876;4.736;2023-12-04T10:34:25;2.80;99.90
8820;DHT22;4446;50.876;4.736;2023-12-04T10:36:52;2.80;99.90
8820;DHT22;4446;50.876;4.736;2023-12-04T10:39:20;2.80;99.90
8820;DHT22;4446;50.876;4.736;2023-12-04T10:41:59;2.90;99.90
8820;DHT22;4446;50.876;4.736;2023-12-04T10:44:28;2.90;99.90
8820;DHT22;4446;50.876;4.736;2023-12-04T10:46:55;3.00;99.90
8820;DHT22;4446;50.876;4.736;2023-12-04T10:49:26;3.00;99.90
8820;DHT22;4446;50.876;4.736;2023-12-04T10:51:55;3.00;99.90
8820;DHT22;4446;50.876;4.736;2023-12-04T10:54:25;2.90;99.90
8820;DHT22;4446;50.876;4.736;2023-12-04T10:57:00;2.90;99.90
8820;DHT22;4446;50.876;4.736;2023-12-04T10:59:34;2.80;99.90
8820;DHT22;4446;50.876;4.736;2023-12-04T11:02:05;2.80;99.90
8820;DHT22;4446;50.876;4.736;2023-12-04T11:04:36;2.80;99.90
8820;DHT22;4446;50.876;4.736;2023-12-04T11:07:05;2.80;99.90
8820;DHT22;4446;50.876;4.736;2023-12-04T11:09:35;2.80;99.90
8820;DHT22;4446;50.876;4.736;2023-12-04T11:12:08;2.80;99.90
8820;DHT22;4446;50.876;4.736;2023-12-04T11:14:42;2.80;99.90
8820;DHT22;4446;50.876;4.736;2023-12-04T11:17:13;2.80;99.90
8820;DHT22;4446;50.876;4.736;2023-12-04T11:19:47;2.80;99.90
8820;DHT22;4446;50.876;4.736;2023-12-04T11:22:19;2.80;99.90
8820;DHT22;4446;50.876;4.736;2023-12-04T11:24:48;2.70;99.90
8820;DHT22;4446;50.876;4.736;2023-12-04T11:27:17;2.70;99.90
8820;DHT22;4446;50.876;4.736;2023-12-04T11:29:45;2.70;99.90
8820;DHT22;4446;50.876;4.736;2023-12-04T11:32:14;2.70;99.90
8820;DHT22;4446;50.876;4.736;2023-12-04T11:34:48;2.80;99.90
8820;DHT22;4446;50.876;4.736;2023-12-04T11:37:15;2.80;99.90
8820;DHT22;4446;50.876;4.736;2023-12-04T11:39:44;2.90;99.90
8820;DHT22;4446;50.876;4.736;2023-12-04T11:42:13;2.90;99.90
8820;DHT22;4446;50.876;4.736;2023-12-04T11:44:42;2.90;99.90
8820;DHT22;4446;50.876;4.736;2023-12-04T11:47:11;2.90;99.90
8820;DHT22;4446;50.876;4.736;2023-12-04T11:49:38;2.70;99.90
8820;DHT22;4446;50.876;4.736;2023-12-04T11:52:06;2.70;99.90
8820;DHT22;4446;50.876;4.736;2023-12-04T11:54:56;2.70;99.90
8820;DHT22;4446;50.876;4.736;2023-12-04T11:57:23;2.80;99.90
8820;DHT22;4446;50.876;4.736;2023-12-04T12:00:08;2.90;99.90
8820;DHT22;4446;50.876;4.736;2023-12-04T12:02:35;2.90;99.90
8820;DHT22;4446;50.876;4.736;2023-12-04T12:05:02;2.90;99.90
8820;DHT22;4446;50.876;4.736;2023-12-04T12:07:30;2.90;99.90
8820;DHT22;4446;50.876;4.736;2023-12-04T12:09:58;3.00;99.90
8820;DHT22;4446;50.876;4.736;2023-12-04T12:12:25;2.90;99.90
8820;DHT22;4446;50.876;4.736;2023-12-04T12:14:54;3.00;99.90
8820;DHT22;4446;50.876;4.736;2023-12-04T12:17:21;3.00;99.90
8820;DHT22;4446;50.876;4.736;2023-12-04T12:19:48;3.10;99.90
8820;DHT22;4446;50.876;4.736;2023-12-04T12:22:15;3.20;99.90
8820;DHT22;4446;50.876;4.736;2023-12-04T12:24:43;3.10;99.90
8820;DHT22;4446;50.876;4.736;2023-12-04T12:27:11;3.10;99.90
8820;DHT22;4446;50.876;4.736;2023-12-04T12:29:38;3.00;99.90
8820;DHT22;4446;50.876;4.736;2023-12-04T12:32:07;3.10;99.90
8820;DHT22;4446;50.876;4.736;2023-12-04T12:34:34;3.10;99.90
8820;DHT22;4446;50.876;4.736;2023-12-04T12:37:02;3.20;99.90
8820;DHT22;4446;50.876;4.736;2023-12-04T12:39:31;3.20;99.90
8820;DHT22;4446;50.876;4.736;2023-12-04T12:41:58;3.30;99.90
8820;DHT22;4446;50.876;4.736;2023-12-04T12:44:26;3.30;99.90
8820;DHT22;4446;50.876;4.736;2023-12-04T12:46:53;3.30;99.90
8820;DHT22;4446;50.876;4.736;2023-12-04T12:49:22;3.40;99.90
8820;DHT22;4446;50.876;4.736;2023-12-04T12:51:49;3.40;99.90
8820;DHT22;4446;50.876;4.736;2023-12-04T12:54:16;3.40;99.90
8820;DHT22;4446;50.876;4.736;2023-12-04T12:56:43;3.40;99.90
8820;DHT22;4446;50.876;4.736;2023-12-04T12:59:10;3.40;99.90
8820;DHT22;4446;50.876;4.736;2023-12-04T13:01:37;3.40;99.90
8820;DHT22;4446;50.876;4.736;2023-12-04T13:04:04;3.40;99.90
8820;DHT22;4446;50.876;4.736;2023-12-04T13:06:32;3.40;99.90
8820;DHT22;4446;50.876;4.736;2023-12-04T13:09:00;3.40;99.90
8820;DHT22;4446;50.876;4.736;2023-12-04T13:11:27;3.40;99.90
8820;DHT22;4446;50.876;4.736;2023-12-04T13:13:54;3.40;99.90
8820;DHT22;4446;50.876;4.736;2023-12-04T13:16:23;3.40;99.90
8820;DHT22;4446;50.876;4.736;2023-12-04T13:18:50;3.40;99.90
8820;DHT22;4446;50.876;4.736;2023-12-04T13:21:17;3.50;99.90
8820;DHT22;4446;50.876;4.736;2023-12-04T13:23:45;3.50;99.90
8820;DHT22;4446;50.876;4.736;2023-12-04T13:26:12;3.50;99.90
8820;DHT22;4446;50.876;4.736;2023-12-04T13:28:41;3.50;99.90
8820;DHT22;4446;50.876;4.736;2023-12-04T13:31:08;3.40;99.90
8820;DHT22;4446;50.876;4.736;2023-12-04T13:33:35;3.50;99.90
8820;DHT22;4446;50.876;4.736;2023-12-04T13:36:02;3.40;99.90
8820;DHT22;4446;50.876;4.736;2023-12-04T13:38:30;3.40;99.90
8820;DHT22;4446;50.876;4.736;2023-12-04T13:40:59;3.40;99.90
8820;DHT22;4446;50.876;4.736;2023-12-04T13:43:34;3.50;99.90
8820;DHT22;4446;50.876;4.736;2023-12-04T13:46:19;3.50;99.90
8820;DHT22;4446;50.876;4.736;2023-12-04T13:48:46;3.70;99.90
8820;DHT22;4446;50.876;4.736;2023-12-04T13:51:13;3.70;99.90
8820;DHT22;4446;50.876;4.736;2023-12-04T13:53:40;3.70;99.90
8820;DHT22;4446;50.876;4.736;2023-12-04T13:56:12;3.70;99.90
8820;DHT22;4446;50.876;4.736;2023-12-04T13:58:51;3.60;99.90
8820;DHT22;4446;50.876;4.736;2023-12-04T14:01:23;3.60;99.90
8820;DHT22;4446;50.876;4.736;2023-12-04T14:03:52;3.50;99.90
8820;DHT22;4446;50.876;4.736;2023-12-04T14:06:19;3.60;99.90
8820;DHT22;4446;50.876;4.736;2023-12-04T14:08:46;3.60;99.90
8820;DHT22;4446;50.876;4.736;2023-12-04T14:11:15;3.60;99.90
8820;DHT22;4446;50.876;4.736;2023-12-04T14:13:42;3.60;99.90
8820;DHT22;4446;50.876;4.736;2023-12-04T14:16:09;3.70;99.90
8820;DHT22;4446;50.876;4.736;2023-12-04T14:18:36;3.70;99.90
8820;DHT22;4446;50.876;4.736;2023-12-04T14:21:04;3.70;99.90
8820;DHT22;4446;50.876;4.736;2023-12-04T14:23:31;3.70;99.90
8820;DHT22;4446;50.876;4.736;2023-12-04T14:25:58;3.60;99.90
8820;DHT22;4446;50.876;4.736;2023-12-04T14:28:28;3.60;99.90
8820;DHT22;4446;50.876;4.736;2023-12-04T14:30:55;3.60;99.90
8820;DHT22;4446;50.876;4.736;2023-12-04T14:33:22;3.50;99.90
8820;DHT22;4446;50.876;4.736;2023-12-04T14:35:49;3.50;99.90
8820;DHT22;4446;50.876;4.736;2023-12-04T14:38:16;3.50;99.90
8820;DHT22;4446;50.876;4.736;2023-12-04T14:40:43;3.60;99.90
8820;DHT22;4446;50.876;4.736;2023-12-04T14:43:10;3.60;99.90
8820;DHT22;4446;50.876;4.736;2023-12-04T14:45:39;3.50;99.90
8820;DHT22;4446;50.876;4.736;2023-12-04T14:48:06;3.60;99.90
8820;DHT22;4446;50.876;4.736;2023-12-04T14:50:33;3.60;99.90
8820;DHT22;4446;50.876;4.736;2023-12-04T14:53:01;3.60;99.90
8820;DHT22;4446;50.876;4.736;2023-12-04T14:55:42;3.60;99.90
8820;DHT22;4446;50.876;4.736;2023-12-04T14:58:28;3.70;99.90
8820;DHT22;4446;50.876;4.736;2023-12-04T15:01:14;3.60;99.90
8820;DHT22;4446;50.876;4.736;2023-12-04T15:03:57;3.60;99.90
8820;DHT22;4446;50.876;4.736;2023-12-04T15:06:42;3.70;99.90
8820;DHT22;4446;50.876;4.736;2023-12-04T15:09:33;3.80;99.90
8820;DHT22;4446;50.876;4.736;2023-12-04T15:12:35;3.70;99.90
8820;DHT22;4446;50.876;4.736;2023-12-04T15:15:23;3.70;99.90
8820;DHT22;4446;50.876;4.736;2023-12-04T15:18:06;3.80;99.90
8820;DHT22;4446;50.876;4.736;2023-12-04T15:20:50;3.80;99.90
8820;DHT22;4446;50.876;4.736;2023-12-04T15:23:18;3.90;99.90
8820;DHT22;4446;50.876;4.736;2023-12-04T15:25:44;3.80;99.90
8820;DHT22;4446;50.876;4.736;2023-12-04T15:28:16;3.80;99.90
8820;DHT22;4446;50.876;4.736;2023-12-04T15:30:45;3.80;99.90
8820;DHT22;4446;50.876;4.736;2023-12-04T15:33:13;3.80;99.90
8820;DHT22;4446;50.876;4.736;2023-12-04T15:35:39;3.80;99.90
8820;DHT22;4446;50.876;4.736;2023-12-04T15:38:07;3.80;99.90
8820;DHT22;4446;50.876;4.736;2023-12-04T15:40:34;3.80;99.90
8820;DHT22;4446;50.876;4.736;2023-12-04T15:43:00;3.80;99.90
8820;DHT22;4446;50.876;4.736;2023-12-04T15:45:28;3.80;99.90
8820;DHT22;4446;50.876;4.736;2023-12-04T15:47:55;3.80;99.90
8820;DHT22;4446;50.876;4.736;2023-12-04T15:50:23;3.80;99.90
8820;DHT22;4446;50.876;4.736;2023-12-04T15:52:51;3.90;99.90
8820;DHT22;4446;50.876;4.736;2023-12-04T15:55:18;3.90;99.90
8820;DHT22;4446;50.876;4.736;2023-12-04T15:57:46;3.90;99.90
8820;DHT22;4446;50.876;4.736;2023-12-04T16:00:20;3.90;99.90
8820;DHT22;4446;50.876;4.736;2023-12-04T16:02:47;3.90;99.90
8820;DHT22;4446;50.876;4.736;2023-12-04T16:05:14;3.90;99.90
8820;DHT22;4446;50.876;4.736;2023-12-04T16:07:43;3.80;99.90
8820;DHT22;4446;50.876;4.736;2023-12-04T16:10:10;3.80;99.90
8820;DHT22;4446;50.876;4.736;2023-12-04T16:12:37;3.80;99.90
8820;DHT22;4446;50.876;4.736;2023-12-04T16:15:06;3.80;99.90
8820;DHT22;4446;50.876;4.736;2023-12-04T16:17:34;3.80;99.90
8820;DHT22;4446;50.876;4.736;2023-12-04T16:20:02;3.80;99.90
8820;DHT22;4446;50.876;4.736;2023-12-04T16:22:29;3.80;99.90
8820;DHT22;4446;50.876;4.736;2023-12-04T16:24:57;3.80;99.90
8820;DHT22;4446;50.876;4.736;2023-12-04T16:27:24;3.90;99.90